sensor_id;sensor_type;location;lat;lon;timestamp;temperature;humidity
30520;DHT22;17300;50.374;8.006;2023-12-28T00:02:02;10.70;51.80
30520;DHT22;17300;50.374;8.006;2023-12-28T00:04:28;10.70;51.80
30520;DHT22;17300;50.374;8.006;2023-12-28T00:06:55;10.80;52.00
30520;DHT22;17300;50.374;8.006;2023-12-28T00:09:22;10.80;51.90
30520;DHT22;17300;50.374;8.006;2023-12-28T00:11:48;10.90;52.00
30520;DHT22;17300;50.374;8.006;2023-12-28T00:14:16;10.90;52.00
30520;DHT22;17300;50.374;8.006;2023-12-28T00:16:43;10.90;52.10
30520;DHT22;17300;50.374;8.006;2023-12-28T00:19:10;11.00;52.20
30520;DHT22;17300;50.374;8.006;2023-12-28T00:21:36;11.00;52.20
30520;DHT22;17300;50.374;8.006;2023-12-28T00:24:03;11.10;52.30
30520;DHT22;17300;50.374;8.006;2023-12-28T00:26:30;11.10;52.20
30520;DHT22;17300;50.374;8.006;2023-12-28T00:28:57;11.10;52.10
30520;DHT22;17300;50.374;8.006;2023-12-28T00:31:25;11.20;52.10
30520;DHT22;17300;50.374;8.006;2023-12-28T00:33:51;11.20;52.10
30520;DHT22;17300;50.374;8.006;2023-12-28T00:36:18;11.30;52.10
30520;DHT22;17300;50.374;8.006;2023-12-28T00:38:46;11.30;52.10
30520;DHT22;17300;50.374;8.006;2023-12-28T00:41:12;11.40;52.10
30520;DHT22;17300;50.374;8.006;2023-12-28T00:43:39;11.40;52.00
30520;DHT22;17300;50.374;8.006;2023-12-28T00:46:05;11.50;52.00
30520;DHT22;17300;50.374;8.006;2023-12-28T00:48:33;11.50;51.90
30520;DHT22;17300;50.374;8.006;2023-12-28T00:51:00;11.60;52.10
30520;DHT22;17300;50.374;8.006;2023-12-28T00:53:27;11.60;52.20
30520;DHT22;17300;50.374;8.006;2023-12-28T00:55:52;11.70;52.20
30520;DHT22;17300;50.374;8.006;2023-12-28T00:58:19;11.70;52.20
30520;DHT22;17300;50.374;8.006;2023-12-28T01:00:46;11.80;52.30
30520;DHT22;17300;50.374;8.006;2023-12-28T01:03:12;11.80;52.20
30520;DHT22;17300;50.374;8.006;2023-12-28T01:05:40;11.90;52.20
30520;DHT22;17300;50.374;8.006;2023-12-28T01:08:07;11.90;52.20
30520;DHT22;17300;50.374;8.006;2023-12-28T01:10:34;11.90;52.20
30520;DHT22;17300;50.374;8.006;2023-12-28T01:13:00;12.00;52.30
30520;DHT22;17300;50.374;8.006;2023-12-28T01:15:26;12.00;52.80
30520;DHT22;17300;50.374;8.006;2023-12-28T01:17:53;12.10;52.20
30520;DHT22;17300;50.374;8.006;2023-12-28T01:20:19;12.10;52.20
30520;DHT22;17300;50.374;8.006;2023-12-28T01:22:47;12.10;52.00
30520;DHT22;17300;50.374;8.006;2023-12-28T01:25:15;12.10;51.90
30520;DHT22;17300;50.374;8.006;2023-12-28T01:27:42;12.20;51.80
30520;DHT22;17300;50.374;8.006;2023-12-28T01:30:09;12.30;52.00
30520;DHT22;17300;50.374;8.006;2023-12-28T01:32:35;12.30;52.00
30520;DHT22;17300;50.374;8.006;2023-12-28T01:35:02;12.30;52.00
30520;DHT22;17300;50.374;8.006;2023-12-28T01:37:29;12.30;52.10
30520;DHT22;17300;50.374;8.006;2023-12-28T01:40:00;12.40;52.30
30520;DHT22;17300;50.374;8.006;2023-12-28T01:42:27;12.40;52.30
30520;DHT22;17300;50.374;8.006;2023-12-28T01:44:56;12.40;52.30
30520;DHT22;17300;50.374;8.006;2023-12-28T01:47:22;12.50;52.40
30520;DHT22;17300;50.374;8.006;2023-12-28T01:49:49;12.50;52.30
30520;DHT22;17300;50.374;8.006;2023-12-28T01:52:16;12.50;52.40
30520;DHT22;17300;50.374;8.006;2023-12-28T01:54:43;12.50;52.30
30520;DHT22;17300;50.374;8.006;2023-12-28T01:57:11;12.50;52.40
30520;DHT22;17300;50.374;8.006;2023-12-28T01:59:38;12.60;52.50
30520;DHT22;17300;50.374;8.006;2023-12-28T02:02:05;12.60;52.50
30520;DHT22;17300;50.374;8.006;2023-12-28T02:04:32;12.60;52.60
30520;DHT22;17300;50.374;8.006;2023-12-28T02:07:00;12.60;52.60
30520;DHT22;17300;50.374;8.006;2023-12-28T02:09:28;12.70;52.70
30520;DHT22;17300;50.374;8.006;2023-12-28T02:11:55;12.70;52.80
30520;DHT22;17300;50.374;8.006;2023-12-28T02:14:23;12.80;53.00
30520;DHT22;17300;50.374;8.006;2023-12-28T02:16:56;12.80;53.10
30520;DHT22;17300;50.374;8.006;2023-12-28T02:19:32;12.80;53.20
30520;DHT22;17300;50.374;8.006;2023-12-28T02:22:03;12.90;53.40
30520;DHT22;17300;50.374;8.006;2023-12-28T02:24:30;13.00;53.50
30520;DHT22;17300;50.374;8.006;2023-12-28T02:26:58;13.00;53.50
30520;DHT22;17300;50.374;8.006;2023-12-28T02:29:25;13.00;53.50
30520;DHT22;17300;50.374;8.006;2023-12-28T02:31:58;13.10;53.60
30520;DHT22;17300;50.374;8.006;2023-12-28T02:34:29;13.10;53.60
30520;DHT22;17300;50.374;8.006;2023-12-28T02:36:57;13.10;53.50
30520;DHT22;17300;50.374;8.006;2023-12-28T02:39:26;13.10;53.50
30520;DHT22;17300;50.374;8.006;2023-12-28T02:41:53;13.10;53.50
30520;DHT22;17300;50.374;8.006;2023-12-28T02:44:22;13.20;53.60
30520;DHT22;17300;50.374;8.006;2023-12-28T02:46:48;13.20;53.70
30520;DHT22;17300;50.374;8.006;2023-12-28T02:49:15;13.20;53.70
30520;DHT22;17300;50.374;8.006;2023-12-28T02:51:42;13.20;53.70
30520;DHT22;17300;50.374;8.006;2023-12-28T02:54:08;13.20;53.70
30520;DHT22;17300;50.374;8.006;2023-12-28T02:56:35;13.20;53.70
30520;DHT22;17300;50.374;8.006;2023-12-28T02:59:02;13.20;53.70
30520;DHT22;17300;50.374;8.006;2023-12-28T03:01:30;13.20;53.70
30520;DHT22;17300;50.374;8.006;2023-12-28T03:03:56;13.30;53.80
30520;DHT22;17300;50.374;8.006;2023-12-28T03:06:23;13.30;53.70
30520;DHT22;17300;50.374;8.006;2023-12-28T03:08:49;13.20;53.60
30520;DHT22;17300;50.374;8.006;2023-12-28T03:11:16;13.30;53.70
30520;DHT22;17300;50.374;8.006;2023-12-28T03:13:43;13.30;53.70
30520;DHT22;17300;50.374;8.006;2023-12-28T03:16:09;13.30;53.80
30520;DHT22;17300;50.374;8.006;2023-12-28T03:18:37;13.30;53.80
30520;DHT22;17300;50.374;8.006;2023-12-28T03:21:04;13.30;53.80
30520;DHT22;17300;50.374;8.006;2023-12-28T03:23:31;13.30;53.80
30520;DHT22;17300;50.374;8.006;2023-12-28T03:25:58;13.30;53.90
30520;DHT22;17300;50.374;8.006;2023-12-28T03:28:26;13.30;53.90
30520;DHT22;17300;50.374;8.006;2023-12-28T03:30:53;13.30;53.90
30520;DHT22;17300;50.374;8.006;2023-12-28T03:33:20;13.30;53.90
30520;DHT22;17300;50.374;8.006;2023-12-28T03:35:48;13.40;54.00
30520;DHT22;17300;50.374;8.006;2023-12-28T03:38:14;13.40;54.00
30520;DHT22;17300;50.374;8.006;2023-12-28T03:40:41;13.30;53.90
30520;DHT22;17300;50.374;8.006;2023-12-28T03:43:08;13.40;54.00
30520;DHT22;17300;50.374;8.006;2023-12-28T03:45:35;13.40;54.10
30520;DHT22;17300;50.374;8.006;2023-12-28T03:48:01;13.40;54.10
30520;DHT22;17300;50.374;8.006;2023-12-28T03:50:28;13.40;54.20
30520;DHT22;17300;50.374;8.006;2023-12-28T03:52:56;13.40;54.20
30520;DHT22;17300;50.374;8.006;2023-12-28T03:55:24;13.40;54.20
30520;DHT22;17300;50.374;8.006;2023-12-28T03:57:50;13.40;54.20
30520;DHT22;17300;50.374;8.006;2023-12-28T04:00:17;13.40;54.20
30520;DHT22;17300;50.374;8.006;2023-12-28T04:02:44;13.40;54.30
30520;DHT22;17300;50.374;8.006;2023-12-28T04:05:11;13.40;54.30
30520;DHT22;17300;50.374;8.006;2023-12-28T04:07:37;13.40;54.40
30520;DHT22;17300;50.374;8.006;2023-12-28T04:10:06;13.40;54.40
30520;DHT22;17300;50.374;8.006;2023-12-28T04:12:33;13.40;54.50
30520;DHT22;17300;50.374;8.006;2023-12-28T04:15:00;13.40;54.50
30520;DHT22;17300;50.374;8.006;2023-12-28T04:17:27;13.40;54.60
30520;DHT22;17300;50.374;8.006;2023-12-28T04:19:53;13.40;54.60
30520;DHT22;17300;50.374;8.006;2023-12-28T04:22:20;13.40;54.60
30520;DHT22;17300;50.374;8.006;2023-12-28T04:24:46;13.40;54.70
30520;DHT22;17300;50.374;8.006;2023-12-28T04:27:14;13.40;54.70
30520;DHT22;17300;50.374;8.006;2023-12-28T04:29:42;13.40;54.70
30520;DHT22;17300;50.374;8.006;2023-12-28T04:32:08;13.40;54.70
30520;DHT22;17300;50.374;8.006;2023-12-28T04:34:35;13.40;54.80
30520;DHT22;17300;50.374;8.006;2023-12-28T04:37:02;13.40;54.80
30520;DHT22;17300;50.374;8.006;2023-12-28T04:39:29;13.40;54.80
30520;DHT22;17300;50.374;8.006;2023-12-28T04:41:56;13.40;54.90
30520;DHT22;17300;50.374;8.006;2023-12-28T04:44:24;13.40;55.00
30520;DHT22;17300;50.374;8.006;2023-12-28T04:46:51;13.40;55.00
30520;DHT22;17300;50.374;8.006;2023-12-28T04:49:17;13.40;55.00
30520;DHT22;17300;50.374;8.006;2023-12-28T04:51:44;13.40;55.00
30520;DHT22;17300;50.374;8.006;2023-12-28T04:54:11;13.40;55.00
30520;DHT22;17300;50.374;8.006;2023-12-28T04:56:38;13.40;55.00
30520;DHT22;17300;50.374;8.006;2023-12-28T04:59:04;13.40;55.10
30520;DHT22;17300;50.374;8.006;2023-12-28T05:01:58;13.40;55.10
30520;DHT22;17300;50.374;8.006;2023-12-28T05:04:25;13.40;55.50
30520;DHT22;17300;50.374;8.006;2023-12-28T05:06:52;13.40;55.10
30520;DHT22;17300;50.374;8.006;2023-12-28T05:09:18;13.40;55.10
30520;DHT22;17300;50.374;8.006;2023-12-28T05:11:45;13.40;55.10
30520;DHT22;17300;50.374;8.006;2023-12-28T05:14:11;13.40;55.10
30520;DHT22;17300;50.374;8.006;2023-12-28T05:16:38;13.40;55.20
30520;DHT22;17300;50.374;8.006;2023-12-28T05:19:06;13.30;55.10
30520;DHT22;17300;50.374;8.006;2023-12-28T05:21:34;13.30;55.10
30520;DHT22;17300;50.374;8.006;2023-12-28T05:24:00;13.40;55.30
30520;DHT22;17300;50.374;8.006;2023-12-28T05:26:27;13.40;55.30
30520;DHT22;17300;50.374;8.006;2023-12-28T05:28:54;13.40;55.40
30520;DHT22;17300;50.374;8.006;2023-12-28T05:31:20;13.40;55.30
30520;DHT22;17300;50.374;8.006;2023-12-28T05:33:47;13.40;55.30
30520;DHT22;17300;50.374;8.006;2023-12-28T05:36:15;13.40;55.20
30520;DHT22;17300;50.374;8.006;2023-12-28T05:38:42;13.40;55.20
30520;DHT22;17300;50.374;8.006;2023-12-28T05:41:09;13.30;55.10
30520;DHT22;17300;50.374;8.006;2023-12-28T05:43:36;13.30;55.10
30520;DHT22;17300;50.374;8.006;2023-12-28T05:46:03;13.30;55.10
30520;DHT22;17300;50.374;8.006;2023-12-28T05:48:29;13.30;55.70
30520;DHT22;17300;50.374;8.006;2023-12-28T05:50:57;13.30;55.10
30520;DHT22;17300;50.374;8.006;2023-12-28T05:53:26;13.30;55.10
30520;DHT22;17300;50.374;8.006;2023-12-28T05:55:53;13.30;55.10
30520;DHT22;17300;50.374;8.006;2023-12-28T05:58:20;13.30;55.10
30520;DHT22;17300;50.374;8.006;2023-12-28T06:00:47;13.30;55.00
30520;DHT22;17300;50.374;8.006;2023-12-28T06:03:14;13.30;55.10
30520;DHT22;17300;50.374;8.006;2023-12-28T06:05:40;13.30;55.00
30520;DHT22;17300;50.374;8.006;2023-12-28T06:08:07;13.30;55.00
30520;DHT22;17300;50.374;8.006;2023-12-28T06:10:35;13.30;55.00
30520;DHT22;17300;50.374;8.006;2023-12-28T06:13:02;13.30;55.00
30520;DHT22;17300;50.374;8.006;2023-12-28T06:15:29;13.40;55.10
30520;DHT22;17300;50.374;8.006;2023-12-28T06:17:55;13.30;55.00
30520;DHT22;17300;50.374;8.006;2023-12-28T06:20:22;13.30;55.00
30520;DHT22;17300;50.374;8.006;2023-12-28T06:22:48;13.30;55.00
30520;DHT22;17300;50.374;8.006;2023-12-28T06:25:16;13.30;55.00
30520;DHT22;17300;50.374;8.006;2023-12-28T06:27:44;13.30;55.00
30520;DHT22;17300;50.374;8.006;2023-12-28T06:30:11;13.30;55.00
30520;DHT22;17300;50.374;8.006;2023-12-28T06:32:38;13.30;55.00
30520;DHT22;17300;50.374;8.006;2023-12-28T06:35:06;13.40;55.00
30520;DHT22;17300;50.374;8.006;2023-12-28T06:37:32;13.40;55.00
30520;DHT22;17300;50.374;8.006;2023-12-28T06:39:59;13.30;54.80
30520;DHT22;17300;50.374;8.006;2023-12-28T06:42:26;13.30;54.80
30520;DHT22;17300;50.374;8.006;2023-12-28T06:44:54;13.30;54.80
30520;DHT22;17300;50.374;8.006;2023-12-28T06:47:20;13.30;54.80
30520;DHT22;17300;50.374;8.006;2023-12-28T06:49:47;13.30;54.80
30520;DHT22;17300;50.374;8.006;2023-12-28T06:52:14;13.40;54.80
30520;DHT22;17300;50.374;8.006;2023-12-28T06:54:40;13.40;54.80
30520;DHT22;17300;50.374;8.006;2023-12-28T06:57:07;13.40;54.80
30520;DHT22;17300;50.374;8.006;2023-12-28T06:59:33;13.40;54.80
30520;DHT22;17300;50.374;8.006;2023-12-28T07:02:02;13.40;54.70
30520;DHT22;17300;50.374;8.006;2023-12-28T07:04:28;13.40;54.70
30520;DHT22;17300;50.374;8.006;2023-12-28T07:06:55;13.40;54.70
30520;DHT22;17300;50.374;8.006;2023-12-28T07:09:22;13.40;54.60
30520;DHT22;17300;50.374;8.006;2023-12-28T07:11:48;13.40;54.60
30520;DHT22;17300;50.374;8.006;2023-12-28T07:14:15;13.40;54.60
30520;DHT22;17300;50.374;8.006;2023-12-28T07:16:42;13.40;54.60
30520;DHT22;17300;50.374;8.006;2023-12-28T07:19:10;13.40;54.50
30520;DHT22;17300;50.374;8.006;2023-12-28T07:21:36;13.40;54.50
30520;DHT22;17300;50.374;8.006;2023-12-28T07:24:04;13.40;54.50
30520;DHT22;17300;50.374;8.006;2023-12-28T07:26:31;13.40;54.50
30520;DHT22;17300;50.374;8.006;2023-12-28T07:28:57;13.40;54.50
30520;DHT22;17300;50.374;8.006;2023-12-28T07:31:24;13.40;54.50
30520;DHT22;17300;50.374;8.006;2023-12-28T07:33:51;13.40;54.50
30520;DHT22;17300;50.374;8.006;2023-12-28T07:36:19;13.40;54.40
30520;DHT22;17300;50.374;8.006;2023-12-28T07:38:46;13.40;54.40
30520;DHT22;17300;50.374;8.006;2023-12-28T07:41:13;13.30;54.40
30520;DHT22;17300;50.374;8.006;2023-12-28T07:43:40;13.40;54.40
30520;DHT22;17300;50.374;8.006;2023-12-28T07:46:07;13.30;54.30
30520;DHT22;17300;50.374;8.006;2023-12-28T07:48:34;13.40;54.40
30520;DHT22;17300;50.374;8.006;2023-12-28T07:51:04;13.40;54.40
30520;DHT22;17300;50.374;8.006;2023-12-28T07:53:32;13.40;54.40
30520;DHT22;17300;50.374;8.006;2023-12-28T07:55:58;13.40;54.40
30520;DHT22;17300;50.374;8.006;2023-12-28T07:58:25;13.40;54.30
30520;DHT22;17300;50.374;8.006;2023-12-28T08:00:52;13.40;54.40
30520;DHT22;17300;50.374;8.006;2023-12-28T08:03:18;13.40;54.30
30520;DHT22;17300;50.374;8.006;2023-12-28T08:05:45;13.40;54.30
30520;DHT22;17300;50.374;8.006;2023-12-28T08:08:12;13.40;54.30
30520;DHT22;17300;50.374;8.006;2023-12-28T08:10:40;13.40;54.30
30520;DHT22;17300;50.374;8.006;2023-12-28T08:13:07;13.40;54.30
30520;DHT22;17300;50.374;8.006;2023-12-28T08:15:33;13.40;54.30
30520;DHT22;17300;50.374;8.006;2023-12-28T08:18:00;13.40;54.30
30520;DHT22;17300;50.374;8.006;2023-12-28T08:20:27;13.40;54.30
30520;DHT22;17300;50.374;8.006;2023-12-28T08:22:54;13.40;54.30
30520;DHT22;17300;50.374;8.006;2023-12-28T08:25:20;13.40;54.90
30520;DHT22;17300;50.374;8.006;2023-12-28T08:27:49;13.40;54.20
30520;DHT22;17300;50.374;8.006;2023-12-28T08:30:16;13.50;54.40
30520;DHT22;17300;50.374;8.006;2023-12-28T08:32:43;13.50;54.40
30520;DHT22;17300;50.374;8.006;2023-12-28T08:35:09;13.50;54.30
30520;DHT22;17300;50.374;8.006;2023-12-28T08:37:36;13.50;54.30
30520;DHT22;17300;50.374;8.006;2023-12-28T08:40:03;13.50;54.30
30520;DHT22;17300;50.374;8.006;2023-12-28T08:42:30;13.60;54.40
30520;DHT22;17300;50.374;8.006;2023-12-28T08:44:58;13.50;54.30
30520;DHT22;17300;50.374;8.006;2023-12-28T08:47:25;13.60;54.40
30520;DHT22;17300;50.374;8.006;2023-12-28T08:49:51;13.60;54.30
30520;DHT22;17300;50.374;8.006;2023-12-28T08:52:18;13.60;54.30
30520;DHT22;17300;50.374;8.006;2023-12-28T08:54:45;13.70;54.90
30520;DHT22;17300;50.374;8.006;2023-12-28T08:57:12;13.70;54.30
30520;DHT22;17300;50.374;8.006;2023-12-28T08:59:40;13.70;54.30
30520;DHT22;17300;50.374;8.006;2023-12-28T09:02:08;13.80;54.40
30520;DHT22;17300;50.374;8.006;2023-12-28T09:04:35;13.80;54.30
30520;DHT22;17300;50.374;8.006;2023-12-28T09:07:01;13.80;54.30
30520;DHT22;17300;50.374;8.006;2023-12-28T09:09:28;13.90;54.30
30520;DHT22;17300;50.374;8.006;2023-12-28T09:11:55;13.90;54.30
30520;DHT22;17300;50.374;8.006;2023-12-28T09:14:22;13.90;54.10
30520;DHT22;17300;50.374;8.006;2023-12-28T09:16:49;14.00;54.10
30520;DHT22;17300;50.374;8.006;2023-12-28T09:19:17;14.00;54.10
30520;DHT22;17300;50.374;8.006;2023-12-28T09:21:44;14.00;53.90
30520;DHT22;17300;50.374;8.006;2023-12-28T09:24:10;14.10;54.00
30520;DHT22;17300;50.374;8.006;2023-12-28T09:26:37;14.10;54.00
30520;DHT22;17300;50.374;8.006;2023-12-28T09:29:04;14.10;54.00
30520;DHT22;17300;50.374;8.006;2023-12-28T09:31:30;14.20;54.20
30520;DHT22;17300;50.374;8.006;2023-12-28T09:33:57;14.30;54.20
30520;DHT22;17300;50.374;8.006;2023-12-28T09:36:26;14.30;54.80
30520;DHT22;17300;50.374;8.006;2023-12-28T09:38:53;14.40;54.20
30520;DHT22;17300;50.374;8.006;2023-12-28T09:41:22;14.50;54.10
30520;DHT22;17300;50.374;8.006;2023-12-28T09:44:07;14.60;54.10
30520;DHT22;17300;50.374;8.006;2023-12-28T09:46:40;14.60;53.80
30520;DHT22;17300;50.374;8.006;2023-12-28T09:49:07;14.70;54.20
30520;DHT22;17300;50.374;8.006;2023-12-28T09:51:36;14.80;54.10
30520;DHT22;17300;50.374;8.006;2023-12-28T09:54:03;14.90;54.10
30520;DHT22;17300;50.374;8.006;2023-12-28T09:56:31;14.90;54.10
30520;DHT22;17300;50.374;8.006;2023-12-28T09:58:59;15.00;54.10
30520;DHT22;17300;50.374;8.006;2023-12-28T10:01:26;15.10;53.90
30520;DHT22;17300;50.374;8.006;2023-12-28T10:03:52;15.20;53.90
30520;DHT22;17300;50.374;8.006;2023-12-28T10:06:19;15.30;53.90
30520;DHT22;17300;50.374;8.006;2023-12-28T10:08:48;15.40;54.10
30520;DHT22;17300;50.374;8.006;2023-12-28T10:11:18;15.60;54.00
30520;DHT22;17300;50.374;8.006;2023-12-28T10:13:45;15.70;54.00
30520;DHT22;17300;50.374;8.006;2023-12-28T10:16:12;15.80;53.80
30520;DHT22;17300;50.374;8.006;2023-12-28T10:18:40;15.90;53.70
30520;DHT22;17300;50.374;8.006;2023-12-28T10:21:08;16.00;53.60
30520;DHT22;17300;50.374;8.006;2023-12-28T10:23:34;16.10;53.60
30520;DHT22;17300;50.374;8.006;2023-12-28T10:26:05;16.10;53.50
30520;DHT22;17300;50.374;8.006;2023-12-28T10:28:32;16.30;53.30
30520;DHT22;17300;50.374;8.006;2023-12-28T10:30:59;16.40;54.00
30520;DHT22;17300;50.374;8.006;2023-12-28T10:33:26;16.50;53.40
30520;DHT22;17300;50.374;8.006;2023-12-28T10:35:56;16.60;53.30
30520;DHT22;17300;50.374;8.006;2023-12-28T10:38:25;16.70;53.10
30520;DHT22;17300;50.374;8.006;2023-12-28T10:40:55;16.80;53.00
30520;DHT22;17300;50.374;8.006;2023-12-28T10:43:24;17.00;53.20
30520;DHT22;17300;50.374;8.006;2023-12-28T10:45:52;17.10;53.20
30520;DHT22;17300;50.374;8.006;2023-12-28T10:48:25;17.30;53.20
30520;DHT22;17300;50.374;8.006;2023-12-28T10:50:56;17.40;52.80
30520;DHT22;17300;50.374;8.006;2023-12-28T10:53:30;17.50;52.50
30520;DHT22;17300;50.374;8.006;2023-12-28T10:56:10;17.60;52.10
30520;DHT22;17300;50.374;8.006;2023-12-28T10:58:46;17.70;51.80
30520;DHT22;17300;50.374;8.006;2023-12-28T11:01:19;17.80;51.80
30520;DHT22;17300;50.374;8.006;2023-12-28T11:03:52;18.00;52.20
30520;DHT22;17300;50.374;8.006;2023-12-28T11:06:19;18.10;51.80
30520;DHT22;17300;50.374;8.006;2023-12-28T11:21:36;18.50;51.20
30520;DHT22;17300;50.374;8.006;2023-12-28T11:24:04;18.60;50.50
30520;DHT22;17300;50.374;8.006;2023-12-28T11:26:31;18.60;50.40
30520;DHT22;17300;50.374;8.006;2023-12-28T11:29:01;18.60;50.40
30520;DHT22;17300;50.374;8.006;2023-12-28T11:31:28;18.70;50.20
30520;DHT22;17300;50.374;8.006;2023-12-28T11:33:58;18.70;50.30
30520;DHT22;17300;50.374;8.006;2023-12-28T11:36:27;18.70;50.00
30520;DHT22;17300;50.374;8.006;2023-12-28T11:39:02;18.70;49.60
30520;DHT22;17300;50.374;8.006;2023-12-28T11:41:31;18.70;49.30
30520;DHT22;17300;50.374;8.006;2023-12-28T11:44:02;18.80;49.00
30520;DHT22;17300;50.374;8.006;2023-12-28T11:46:32;18.70;48.70
30520;DHT22;17300;50.374;8.006;2023-12-28T11:49:07;18.70;48.80
30520;DHT22;17300;50.374;8.006;2023-12-28T11:51:36;18.80;48.60
30520;DHT22;17300;50.374;8.006;2023-12-28T11:54:17;18.70;48.40
30520;DHT22;17300;50.374;8.006;2023-12-28T12:03:25;18.80;47.80
30520;DHT22;17300;50.374;8.006;2023-12-28T12:04:15;18.80;47.70
30520;DHT22;17300;50.374;8.006;2023-12-28T12:51:15;18.60;45.70
30520;DHT22;17300;50.374;8.006;2023-12-28T12:53:44;18.60;45.70
30520;DHT22;17300;50.374;8.006;2023-12-28T12:56:11;18.60;45.70
30520;DHT22;17300;50.374;8.006;2023-12-28T12:58:38;18.60;45.40
30520;DHT22;17300;50.374;8.006;2023-12-28T13:01:04;18.50;45.60
30520;DHT22;17300;50.374;8.006;2023-12-28T13:03:31;18.50;45.40
30520;DHT22;17300;50.374;8.006;2023-12-28T13:05:58;18.50;45.30
30520;DHT22;17300;50.374;8.006;2023-12-28T13:08:26;18.50;45.20
30520;DHT22;17300;50.374;8.006;2023-12-28T13:10:52;18.50;45.30
30520;DHT22;17300;50.374;8.006;2023-12-28T13:13:19;18.50;45.20
30520;DHT22;17300;50.374;8.006;2023-12-28T13:15:46;18.40;45.00
30520;DHT22;17300;50.374;8.006;2023-12-28T13:18:12;18.40;44.80
30520;DHT22;17300;50.374;8.006;2023-12-28T13:20:39;18.30;44.50
30520;DHT22;17300;50.374;8.006;2023-12-28T13:23:08;18.30;44.80
30520;DHT22;17300;50.374;8.006;2023-12-28T13:25:36;18.30;44.60
30520;DHT22;17300;50.374;8.006;2023-12-28T13:28:03;18.20;44.70
30520;DHT22;17300;50.374;8.006;2023-12-28T13:30:30;18.20;44.20
30520;DHT22;17300;50.374;8.006;2023-12-28T13:32:57;18.10;44.20
30520;DHT22;17300;50.374;8.006;2023-12-28T13:35:24;18.00;44.00
30520;DHT22;17300;50.374;8.006;2023-12-28T13:37:52;17.90;43.90
30520;DHT22;17300;50.374;8.006;2023-12-28T13:40:19;17.80;43.90
30520;DHT22;17300;50.374;8.006;2023-12-28T13:46:03;17.60;44.00
30520;DHT22;17300;50.374;8.006;2023-12-28T13:48:30;17.40;44.10
30520;DHT22;17300;50.374;8.006;2023-12-28T13:50:57;17.40;44.50
30520;DHT22;17300;50.374;8.006;2023-12-28T13:53:23;17.30;44.70
30520;DHT22;17300;50.374;8.006;2023-12-28T13:55:50;17.20;44.60
30520;DHT22;17300;50.374;8.006;2023-12-28T13:58:17;17.10;44.50
30520;DHT22;17300;50.374;8.006;2023-12-28T14:10:13;17.00;44.90
30520;DHT22;17300;50.374;8.006;2023-12-28T14:12:39;16.90;45.10
30520;DHT22;17300;50.374;8.006;2023-12-28T14:15:07;16.90;45.20
30520;DHT22;17300;50.374;8.006;2023-12-28T14:17:34;16.80;45.30
30520;DHT22;17300;50.374;8.006;2023-12-28T14:20:00;16.80;45.30
30520;DHT22;17300;50.374;8.006;2023-12-28T14:22:28;16.80;45.40
30520;DHT22;17300;50.374;8.006;2023-12-28T14:24:55;16.70;45.40
30520;DHT22;17300;50.374;8.006;2023-12-28T14:27:24;16.80;45.60
30520;DHT22;17300;50.374;8.006;2023-12-28T14:29:51;16.70;45.50
30520;DHT22;17300;50.374;8.006;2023-12-28T14:32:19;16.70;45.70
30520;DHT22;17300;50.374;8.006;2023-12-28T14:34:47;16.70;45.60
30520;DHT22;17300;50.374;8.006;2023-12-28T14:37:13;16.60;45.60
30520;DHT22;17300;50.374;8.006;2023-12-28T14:39:40;16.60;45.60
30520;DHT22;17300;50.374;8.006;2023-12-28T14:42:07;16.60;45.80
30520;DHT22;17300;50.374;8.006;2023-12-28T14:44:36;16.60;45.90
30520;DHT22;17300;50.374;8.006;2023-12-28T14:47:03;16.60;46.00
30520;DHT22;17300;50.374;8.006;2023-12-28T14:49:29;16.60;46.10
30520;DHT22;17300;50.374;8.006;2023-12-28T14:51:56;16.60;46.10
30520;DHT22;17300;50.374;8.006;2023-12-28T14:54:23;16.60;46.20
30520;DHT22;17300;50.374;8.006;2023-12-28T14:56:49;16.50;46.20
30520;DHT22;17300;50.374;8.006;2023-12-28T14:59:16;16.50;46.20
30520;DHT22;17300;50.374;8.006;2023-12-28T15:01:44;16.50;46.20
30520;DHT22;17300;50.374;8.006;2023-12-28T15:04:11;16.50;46.20
30520;DHT22;17300;50.374;8.006;2023-12-28T15:06:38;16.50;46.20
30520;DHT22;17300;50.374;8.006;2023-12-28T15:09:04;16.50;46.20
30520;DHT22;17300;50.374;8.006;2023-12-28T15:11:32;16.40;46.20
30520;DHT22;17300;50.374;8.006;2023-12-28T15:13:59;16.40;46.20
30520;DHT22;17300;50.374;8.006;2023-12-28T15:16:26;16.40;46.20
30520;DHT22;17300;50.374;8.006;2023-12-28T15:18:55;16.30;46.20
30520;DHT22;17300;50.374;8.006;2023-12-28T15:21:22;16.30;46.20
30520;DHT22;17300;50.374;8.006;2023-12-28T15:23:49;16.30;46.40
30520;DHT22;17300;50.374;8.006;2023-12-28T15:26:17;16.20;46.30
30520;DHT22;17300;50.374;8.006;2023-12-28T15:28:46;16.20;46.40
30520;DHT22;17300;50.374;8.006;2023-12-28T15:31:14;16.20;46.50
30520;DHT22;17300;50.374;8.006;2023-12-28T15:33:41;16.10;46.50
30520;DHT22;17300;50.374;8.006;2023-12-28T15:36:09;16.10;46.50
30520;DHT22;17300;50.374;8.006;2023-12-28T15:38:36;16.10;46.60
30520;DHT22;17300;50.374;8.006;2023-12-28T15:41:03;16.00;46.70
30520;DHT22;17300;50.374;8.006;2023-12-28T15:43:29;16.00;46.80
30520;DHT22;17300;50.374;8.006;2023-12-28T15:45:56;16.00;46.80
30520;DHT22;17300;50.374;8.006;2023-12-28T15:48:23;15.90;46.70
30520;DHT22;17300;50.374;8.006;2023-12-28T15:50:50;15.90;46.80
30520;DHT22;17300;50.374;8.006;2023-12-28T15:53:18;15.90;46.90
30520;DHT22;17300;50.374;8.006;2023-12-28T15:55:45;15.80;46.90
30520;DHT22;17300;50.374;8.006;2023-12-28T15:58:12;15.80;46.90
30520;DHT22;17300;50.374;8.006;2023-12-28T16:00:39;15.80;46.90
30520;DHT22;17300;50.374;8.006;2023-12-28T16:03:06;15.80;46.80
30520;DHT22;17300;50.374;8.006;2023-12-28T16:05:32;15.70;46.80
30520;DHT22;17300;50.374;8.006;2023-12-28T16:07:59;15.70;46.70
30520;DHT22;17300;50.374;8.006;2023-12-28T16:10:27;15.70;46.70
30520;DHT22;17300;50.374;8.006;2023-12-28T16:12:54;15.70;46.80
30520;DHT22;17300;50.374;8.006;2023-12-28T16:15:22;15.60;46.80
30520;DHT22;17300;50.374;8.006;2023-12-28T16:17:49;15.60;46.80
30520;DHT22;17300;50.374;8.006;2023-12-28T16:20:23;15.60;46.80
30520;DHT22;17300;50.374;8.006;2023-12-28T16:22:50;15.60;46.90
30520;DHT22;17300;50.374;8.006;2023-12-28T16:25:17;15.60;46.90
30520;DHT22;17300;50.374;8.006;2023-12-28T16:27:45;15.60;47.00
30520;DHT22;17300;50.374;8.006;2023-12-28T16:30:12;15.60;47.10
30520;DHT22;17300;50.374;8.006;2023-12-28T16:32:39;15.50;47.00
30520;DHT22;17300;50.374;8.006;2023-12-28T16:35:06;15.50;47.10
30520;DHT22;17300;50.374;8.006;2023-12-28T16:37:33;15.50;47.10
30520;DHT22;17300;50.374;8.006;2023-12-28T16:39:59;15.50;47.10
30520;DHT22;17300;50.374;8.006;2023-12-28T16:48:58;15.50;47.20
30520;DHT22;17300;50.374;8.006;2023-12-28T18:08:16;15.00;47.10
30520;DHT22;17300;50.374;8.006;2023-12-28T18:10:43;15.00;47.10